createdAt,value
2022-11-10T00:00:18.863Z,22.08
2022-11-10T00:02:45.554Z,22.08
2022-11-10T00:05:12.314Z,22.06
2022-11-10T00:07:38.900Z,22.03
2022-11-10T00:10:06.041Z,22.05
2022-11-10T00:12:32.869Z,22.03
2022-11-10T00:15:18.097Z,22.01
2022-11-10T00:17:44.707Z,22.02
2022-11-10T00:20:11.378Z,22.00
2022-11-10T00:22:38.536Z,22.00
2022-11-10T00:25:05.316Z,21.99
2022-11-10T00:27:32.704Z,21.99
2022-11-10T00:29:59.416Z,21.95
2022-11-10T00:32:25.900Z,21.97
2022-11-10T00:34:52.382Z,21.95
2022-11-10T00:37:18.853Z,21.94
2022-11-10T00:39:45.320Z,21.92
2022-11-10T00:42:11.893Z,21.89
2022-11-10T00:44:38.370Z,21.88
2022-11-10T00:47:04.894Z,21.88
2022-11-10T00:49:31.386Z,21.87
2022-11-10T00:51:58.192Z,21.88
2022-11-10T00:54:24.680Z,21.86
2022-11-10T00:56:51.458Z,21.85
2022-11-10T00:59:17.940Z,21.85
2022-11-10T01:01:44.389Z,21.82
2022-11-10T01:04:10.885Z,21.82
2022-11-10T01:06:37.396Z,21.81
2022-11-10T01:09:04.066Z,21.79
2022-11-10T01:11:30.584Z,21.77
2022-11-10T01:13:57.150Z,21.78
2022-11-10T01:16:28.739Z,21.78
2022-11-10T01:18:57.807Z,21.78
2022-11-10T01:21:24.624Z,21.75
2022-11-10T01:23:51.248Z,21.76
2022-11-10T01:26:17.820Z,21.77
2022-11-10T01:28:44.395Z,21.74
2022-11-10T01:31:12.746Z,21.74
2022-11-10T01:33:39.247Z,21.72
2022-11-10T01:36:06.144Z,21.73
2022-11-10T01:38:34.461Z,21.71
2022-11-10T01:41:01.310Z,21.69
2022-11-10T01:43:27.958Z,21.69
2022-11-10T01:46:01.733Z,21.67
2022-11-10T01:48:45.923Z,21.67
2022-11-10T01:51:30.111Z,21.66
2022-11-10T01:54:07.942Z,21.65
2022-11-10T01:56:36.760Z,21.65
2022-11-10T01:59:09.437Z,21.64
2022-11-10T02:01:35.897Z,21.62
2022-11-10T02:04:04.114Z,21.62
2022-11-10T02:06:33.148Z,21.60
2022-11-10T02:09:00.010Z,21.60
2022-11-10T02:11:27.403Z,21.59
2022-11-10T02:13:53.911Z,21.59
2022-11-10T02:16:20.429Z,21.58
2022-11-10T02:18:47.414Z,21.57
2022-11-10T02:21:16.478Z,21.56
2022-11-10T02:23:44.778Z,21.58
2022-11-10T02:26:11.231Z,21.56
2022-11-10T02:28:38.062Z,21.56
2022-11-10T02:31:04.894Z,21.55
2022-11-10T02:33:31.427Z,21.53
2022-11-10T02:35:57.943Z,21.54
2022-11-10T02:38:24.416Z,21.56
2022-11-10T02:40:50.880Z,21.52
2022-11-10T02:43:17.615Z,21.52
2022-11-10T02:45:44.095Z,21.50
2022-11-10T02:48:11.049Z,21.50
2022-11-10T02:50:37.676Z,21.50
2022-11-10T02:53:04.320Z,21.49
2022-11-10T02:55:30.859Z,21.49
2022-11-10T02:57:57.329Z,21.48
2022-11-10T03:00:23.862Z,21.46
2022-11-10T03:02:58.797Z,21.49
2022-11-10T03:05:25.277Z,21.66
2022-11-10T03:07:58.087Z,21.79
2022-11-10T03:10:25.360Z,21.88
2022-11-10T03:12:55.696Z,21.98
2022-11-10T03:15:22.178Z,22.00
2022-11-10T03:17:50.701Z,22.05
2022-11-10T03:20:17.271Z,22.13
2022-11-10T03:22:43.801Z,22.16
2022-11-10T03:25:10.547Z,22.16
2022-11-10T03:27:37.010Z,22.23
2022-11-10T03:30:04.679Z,22.24
2022-11-10T03:32:31.159Z,22.24
2022-11-10T03:34:57.625Z,22.24
2022-11-10T03:37:24.077Z,22.23
2022-11-10T03:39:50.866Z,22.27
2022-11-10T03:42:17.332Z,22.21
2022-11-10T03:44:44.215Z,22.29
2022-11-10T03:47:10.690Z,22.38
2022-11-10T03:49:37.674Z,22.47
2022-11-10T03:52:04.292Z,22.53
2022-11-10T03:54:31.077Z,22.54
2022-11-10T03:56:57.621Z,22.57
2022-11-10T03:59:24.154Z,22.56
2022-11-10T04:01:50.704Z,22.57
2022-11-10T04:04:35.887Z,22.55
2022-11-10T04:07:20.643Z,22.58
2022-11-10T04:09:47.115Z,22.60
2022-11-10T04:12:31.948Z,22.62
2022-11-10T04:15:16.793Z,22.63
2022-11-10T04:17:49.156Z,22.62
2022-11-10T04:20:15.623Z,22.57
2022-11-10T04:23:00.789Z,22.51
2022-11-10T04:25:27.246Z,22.47
2022-11-10T04:27:53.714Z,22.44
2022-11-10T04:30:20.170Z,22.42
2022-11-10T04:32:46.680Z,22.40
2022-11-10T04:35:13.130Z,22.38
2022-11-10T04:37:39.621Z,22.35
2022-11-10T04:40:06.703Z,22.35
2022-11-10T04:42:33.148Z,22.31
2022-11-10T04:44:59.608Z,22.27
2022-11-10T04:47:26.086Z,22.28
2022-11-10T04:49:52.545Z,22.29
2022-11-10T04:52:19.000Z,22.26
2022-11-10T04:54:45.468Z,22.25
2022-11-10T04:57:12.209Z,22.24
2022-11-10T04:59:38.670Z,22.23
2022-11-10T05:02:05.132Z,22.25
2022-11-10T05:04:31.700Z,22.32
2022-11-10T05:06:58.220Z,22.33
2022-11-10T05:09:24.707Z,22.35
2022-11-10T05:11:51.207Z,22.35
2022-11-10T05:14:17.719Z,22.33
2022-11-10T05:16:44.176Z,22.32
2022-11-10T05:19:11.051Z,22.32
2022-11-10T05:21:37.512Z,22.30
2022-11-10T05:24:04.113Z,22.28
2022-11-10T05:26:30.600Z,22.29
2022-11-10T05:28:57.098Z,22.29
2022-11-10T05:31:23.569Z,22.26
2022-11-10T05:33:51.045Z,22.24
2022-11-10T05:36:17.512Z,22.24
2022-11-10T05:38:44.096Z,22.24
2022-11-10T05:41:10.991Z,22.22
2022-11-10T05:43:37.500Z,22.15
2022-11-10T05:46:03.961Z,22.18
2022-11-10T05:48:30.519Z,22.18
2022-11-10T05:50:56.978Z,22.17
2022-11-10T05:53:23.969Z,22.15
2022-11-10T05:55:50.672Z,22.08
2022-11-10T05:58:17.182Z,22.12
2022-11-10T06:00:43.656Z,22.14
2022-11-10T06:03:14.577Z,22.26
2022-11-10T06:05:41.252Z,22.30
2022-11-10T06:08:07.821Z,22.34
2022-11-10T06:10:34.502Z,22.34
2022-11-10T06:13:01.036Z,22.36
2022-11-10T06:15:27.509Z,22.37
2022-11-10T06:17:54.286Z,22.38
2022-11-10T06:20:21.074Z,22.38
2022-11-10T06:23:10.140Z,22.39
2022-11-10T06:25:37.284Z,22.39
2022-11-10T06:28:04.045Z,22.38
2022-11-10T06:30:31.279Z,22.40
2022-11-10T06:32:57.832Z,22.41
2022-11-10T06:35:24.425Z,22.41
2022-11-10T06:38:07.154Z,22.42
2022-11-10T06:40:33.646Z,22.42
2022-11-10T06:43:00.217Z,22.41
2022-11-10T06:45:28.388Z,22.41
2022-11-10T06:48:06.015Z,22.38
2022-11-10T06:50:32.544Z,22.39
2022-11-10T06:52:59.523Z,22.38
2022-11-10T06:55:26.089Z,22.37
2022-11-10T06:57:52.684Z,22.36
2022-11-10T07:00:19.366Z,22.35
2022-11-10T07:02:45.866Z,22.33
2022-11-10T07:05:12.347Z,22.31
2022-11-10T07:07:38.835Z,22.30
2022-11-10T07:10:07.152Z,22.30
2022-11-10T07:12:34.100Z,22.29
2022-11-10T07:15:00.568Z,22.37
2022-11-10T07:17:27.174Z,22.49
2022-11-10T07:19:53.688Z,22.57
2022-11-10T07:22:20.143Z,22.74
2022-11-10T07:24:46.611Z,22.82
2022-11-10T07:27:13.064Z,22.81
2022-11-10T07:29:39.851Z,22.80
2022-11-10T07:32:06.324Z,22.80
2022-11-10T07:34:32.795Z,22.80
2022-11-10T07:36:59.323Z,22.80
2022-11-10T07:39:25.790Z,22.79
2022-11-10T07:41:53.001Z,22.80
2022-11-10T07:44:19.601Z,22.74
2022-11-10T07:46:46.071Z,22.60
2022-11-10T07:49:12.635Z,22.57
2022-11-10T07:51:39.247Z,22.54
2022-11-10T07:54:05.707Z,22.54
2022-11-10T07:56:32.218Z,22.52
2022-11-10T07:58:58.694Z,22.49
2022-11-10T08:01:25.181Z,22.56
2022-11-10T08:03:51.689Z,22.35
2022-11-10T08:06:18.521Z,22.34
2022-11-10T08:08:47.770Z,22.40
2022-11-10T08:11:15.670Z,22.38
2022-11-10T08:13:42.213Z,22.34
2022-11-10T08:16:08.705Z,22.32
2022-11-10T08:18:35.888Z,22.31
2022-11-10T08:21:03.054Z,22.31
2022-11-10T08:23:29.608Z,22.31
2022-11-10T08:25:59.884Z,22.30
2022-11-10T08:28:26.406Z,22.23
2022-11-10T08:30:52.876Z,22.18
2022-11-10T08:33:20.294Z,22.20
2022-11-10T08:35:48.235Z,22.23
2022-11-10T08:38:16.619Z,22.17
2022-11-10T08:40:43.374Z,22.14
2022-11-10T08:43:09.927Z,22.18
2022-11-10T08:45:37.734Z,22.17
2022-11-10T08:48:06.328Z,22.16
2022-11-10T08:50:32.801Z,22.15
2022-11-10T08:53:06.414Z,22.07
2022-11-10T08:55:32.928Z,22.06
2022-11-10T08:58:00.769Z,22.10
2022-11-10T09:00:28.590Z,22.07
2022-11-10T09:02:56.188Z,22.08
2022-11-10T09:05:23.211Z,22.09
2022-11-10T09:07:49.818Z,22.07
2022-11-10T09:10:16.373Z,22.05
2022-11-10T09:12:42.907Z,22.04
2022-11-10T09:15:09.888Z,22.06
2022-11-10T09:17:37.199Z,22.04
2022-11-10T09:20:04.835Z,22.05
2022-11-10T09:22:31.377Z,22.06
2022-11-10T09:24:57.901Z,22.05
2022-11-10T09:27:24.370Z,22.03
2022-11-10T09:29:50.867Z,22.05
2022-11-10T09:32:17.330Z,22.06
2022-11-10T09:34:46.609Z,22.08
2022-11-10T09:37:15.369Z,22.09
2022-11-10T09:39:41.879Z,22.11
2022-11-10T09:42:22.581Z,22.14
2022-11-10T09:44:55.255Z,22.17
2022-11-10T09:47:56.199Z,22.19
2022-11-10T09:50:24.770Z,22.22
2022-11-10T09:52:51.286Z,22.25
2022-11-10T09:55:36.488Z,22.25
2022-11-10T09:58:03.339Z,22.23
2022-11-10T10:00:30.148Z,22.22
2022-11-10T10:02:59.630Z,22.23
2022-11-10T10:05:34.965Z,22.22
2022-11-10T10:08:04.757Z,22.20
2022-11-10T10:10:49.535Z,22.21
2022-11-10T10:13:55.832Z,22.19
2022-11-10T10:16:30.389Z,22.22
2022-11-10T10:19:08.433Z,22.20
2022-11-10T10:21:45.375Z,22.23
2022-11-10T10:24:19.801Z,22.25
2022-11-10T10:26:52.807Z,22.25
2022-11-10T10:29:46.364Z,22.22
2022-11-10T10:32:13.580Z,22.19
2022-11-10T10:34:40.092Z,22.19
2022-11-10T10:37:22.590Z,22.19
2022-11-10T10:39:50.385Z,22.25
2022-11-10T10:42:32.174Z,22.30
2022-11-10T10:45:21.711Z,22.35
2022-11-10T10:47:53.144Z,22.39
2022-11-10T10:50:23.149Z,22.36
2022-11-10T10:53:12.556Z,22.38
2022-11-10T10:55:39.066Z,22.45
2022-11-10T10:58:23.055Z,22.40
2022-11-10T11:01:29.413Z,22.51
2022-11-10T11:03:55.915Z,22.53
2022-11-10T11:06:25.459Z,22.51
2022-11-10T11:09:02.083Z,22.51
2022-11-10T11:11:31.326Z,22.58
2022-11-10T11:14:22.930Z,22.62
2022-11-10T11:17:12.206Z,22.66
2022-11-10T11:19:38.967Z,22.65
2022-11-10T11:22:23.658Z,22.67
2022-11-10T11:25:27.700Z,22.68
2022-11-10T11:28:18.381Z,22.66
2022-11-10T11:31:09.760Z,22.64
2022-11-10T11:33:38.770Z,22.66
2022-11-10T11:36:05.326Z,22.67
2022-11-10T11:38:52.740Z,22.68
2022-11-10T11:41:30.963Z,22.70
2022-11-10T11:44:16.418Z,22.72
2022-11-10T11:46:49.274Z,22.68
2022-11-10T11:49:34.879Z,22.74
2022-11-10T11:52:28.832Z,22.76
2022-11-10T11:55:15.033Z,22.83
2022-11-10T11:58:17.055Z,22.83
2022-11-10T12:01:00.537Z,22.85
2022-11-10T12:03:36.253Z,22.77
2022-11-10T12:06:09.107Z,22.69
2022-11-10T12:08:38.224Z,22.65
2022-11-10T12:11:04.642Z,22.69
2022-11-10T12:13:41.521Z,22.74
2022-11-10T12:16:22.570Z,22.83
2022-11-10T12:19:26.777Z,22.79
2022-11-10T12:21:57.799Z,22.66
2022-11-10T12:24:42.390Z,22.44
2022-11-10T12:27:13.891Z,22.39
2022-11-10T12:29:50.923Z,22.43
2022-11-10T12:32:20.752Z,22.36
2022-11-10T12:34:49.758Z,22.31
2022-11-10T12:37:23.458Z,22.28
2022-11-10T12:40:23.199Z,22.30
2022-11-10T12:42:55.924Z,22.23
2022-11-10T12:45:36.776Z,22.28
2022-11-10T12:48:04.068Z,22.34
2022-11-10T12:50:33.457Z,22.34
2022-11-10T12:53:03.358Z,22.30
2022-11-10T12:55:47.427Z,22.27
2022-11-10T12:58:14.280Z,22.19
2022-11-10T13:00:44.342Z,22.15
2022-11-10T13:03:31.821Z,22.14
2022-11-10T13:06:02.794Z,22.04
2022-11-10T13:08:50.562Z,21.84
2022-11-10T13:11:16.919Z,21.82
2022-11-10T13:13:59.234Z,21.74
2022-11-10T13:16:41.328Z,21.72
2022-11-10T13:19:11.708Z,21.67
2022-11-10T13:21:53.366Z,21.68
2022-11-10T13:24:26.835Z,21.67
2022-11-10T13:27:10.391Z,21.63
2022-11-10T13:29:43.027Z,21.69
2022-11-10T13:32:15.485Z,21.52
2022-11-10T13:34:42.785Z,21.67
2022-11-10T13:37:33.352Z,21.68
2022-11-10T13:40:18.403Z,21.64
2022-11-10T13:42:47.274Z,21.59
2022-11-10T13:45:34.285Z,21.53
2022-11-10T13:48:12.878Z,21.50
2022-11-10T13:51:08.784Z,21.51
2022-11-10T13:53:57.048Z,21.58
2022-11-10T13:57:02.306Z,21.48
2022-11-10T13:59:32.909Z,21.41
2022-11-10T14:02:33.725Z,21.44
2022-11-10T14:05:00.839Z,21.54
2022-11-10T14:07:33.726Z,21.44
2022-11-10T14:10:03.679Z,21.41
2022-11-10T14:12:37.112Z,21.36
2022-11-10T14:15:07.063Z,21.50
2022-11-10T14:17:42.835Z,21.58
2022-11-10T14:20:27.141Z,21.64
2022-11-10T14:22:53.644Z,21.66
2022-11-10T14:25:25.755Z,21.65
2022-11-10T14:27:56.824Z,21.67
2022-11-10T14:30:25.293Z,21.68
2022-11-10T14:33:06.259Z,21.69
2022-11-10T14:35:34.926Z,21.70
2022-11-10T14:38:03.331Z,21.73
2022-11-10T14:40:29.938Z,21.82
2022-11-10T14:42:56.474Z,21.95
2022-11-10T14:45:24.789Z,21.98
2022-11-10T14:47:55.951Z,21.98
2022-11-10T14:50:33.356Z,22.00
2022-11-10T14:53:19.424Z,22.01
2022-11-10T14:55:48.503Z,22.02
2022-11-10T14:58:28.165Z,22.03
2022-11-10T15:00:54.700Z,21.97
2022-11-10T15:03:32.910Z,22.04
2022-11-10T15:05:59.949Z,22.06
2022-11-10T15:08:26.827Z,22.03
2022-11-10T15:10:53.447Z,21.98
2022-11-10T15:13:33.538Z,21.98
2022-11-10T15:16:31.242Z,22.03
2022-11-10T15:19:20.154Z,22.12
2022-11-10T15:21:46.635Z,22.19
2022-11-10T15:24:13.094Z,22.23
2022-11-10T15:26:40.300Z,22.31
2022-11-10T15:29:07.443Z,22.37
2022-11-10T15:31:34.144Z,22.41
2022-11-10T15:34:01.868Z,22.39
2022-11-10T15:36:32.936Z,22.39
2022-11-10T15:39:12.260Z,22.38
2022-11-10T15:41:42.891Z,22.41
2022-11-10T15:44:30.310Z,22.41
2022-11-10T15:46:57.595Z,22.35
2022-11-10T15:49:26.971Z,22.36
2022-11-10T15:51:57.562Z,22.37
2022-11-10T15:54:25.209Z,22.33
2022-11-10T15:56:51.673Z,22.29
2022-11-10T15:59:18.185Z,22.31
2022-11-10T16:01:44.741Z,22.32
2022-11-10T16:04:11.426Z,22.32
2022-11-10T16:06:38.521Z,22.31
2022-11-10T16:09:05.352Z,22.31
2022-11-10T16:11:31.858Z,22.31
2022-11-10T16:13:58.505Z,22.27
2022-11-10T16:16:24.998Z,22.26
2022-11-10T16:18:51.670Z,22.24
2022-11-10T16:21:22.412Z,22.23
2022-11-10T16:23:48.960Z,22.22
2022-11-10T16:26:17.264Z,22.21
2022-11-10T16:28:47.468Z,22.20
2022-11-10T16:31:15.599Z,22.26
2022-11-10T16:33:42.154Z,22.32
2022-11-10T16:36:16.515Z,22.35
2022-11-10T16:38:43.007Z,22.38
2022-11-10T16:41:12.254Z,22.45
2022-11-10T16:43:38.712Z,22.54
2022-11-10T16:46:06.554Z,22.53
2022-11-10T16:48:34.199Z,22.50
2022-11-10T16:51:00.732Z,22.47
2022-11-10T16:53:29.331Z,22.49
2022-11-10T16:55:56.160Z,22.49
2022-11-10T16:58:25.355Z,22.56
2022-11-10T17:00:52.107Z,22.52
2022-11-10T17:03:28.668Z,22.64
2022-11-10T17:05:55.145Z,22.58
2022-11-10T17:08:23.323Z,22.68
2022-11-10T17:10:50.619Z,22.65
2022-11-10T17:13:17.522Z,22.68
2022-11-10T17:15:44.459Z,22.79
2022-11-10T17:18:12.855Z,22.81
2022-11-10T17:20:39.651Z,22.87
2022-11-10T17:23:06.372Z,22.89
2022-11-10T17:25:34.365Z,22.89
2022-11-10T17:28:01.086Z,22.93
2022-11-10T17:30:28.377Z,22.99
2022-11-10T17:33:05.251Z,23.00
2022-11-10T17:35:36.302Z,23.02
2022-11-10T17:38:08.297Z,23.02
2022-11-10T17:40:34.781Z,23.04
2022-11-10T17:43:01.248Z,23.06
2022-11-10T17:45:27.799Z,23.00
2022-11-10T17:47:54.341Z,23.04
2022-11-10T17:50:22.226Z,23.03
2022-11-10T17:52:48.826Z,23.02
2022-11-10T17:55:22.750Z,23.01
2022-11-10T17:57:49.282Z,23.01
2022-11-10T18:00:16.598Z,23.00
2022-11-10T18:02:43.571Z,22.98
2022-11-10T18:05:11.783Z,22.96
2022-11-10T18:07:38.905Z,22.93
2022-11-10T18:10:06.167Z,22.88
2022-11-10T18:12:32.643Z,22.88
2022-11-10T18:14:59.384Z,22.84
2022-11-10T18:17:25.867Z,22.96
2022-11-10T18:19:52.363Z,23.23
2022-11-10T18:22:18.852Z,23.60
2022-11-10T18:24:45.371Z,23.93
2022-11-10T18:27:11.823Z,24.27
2022-11-10T18:29:38.334Z,24.60
2022-11-10T18:32:05.097Z,24.89
2022-11-10T18:34:31.577Z,24.78
2022-11-10T18:36:58.044Z,24.66
2022-11-10T18:39:24.508Z,24.59
2022-11-10T18:41:52.221Z,24.67
2022-11-10T18:44:21.498Z,24.83
2022-11-10T18:46:48.332Z,24.93
2022-11-10T18:49:15.306Z,24.99
2022-11-10T18:51:41.782Z,25.02
2022-11-10T18:54:08.435Z,25.18
2022-11-10T18:56:35.008Z,25.33
2022-11-10T18:59:01.543Z,25.30
2022-11-10T19:01:28.853Z,25.33
2022-11-10T19:03:55.390Z,25.36
2022-11-10T19:06:21.865Z,25.39
2022-11-10T19:08:48.678Z,25.39
2022-11-10T19:11:16.244Z,25.45
2022-11-10T19:13:42.777Z,25.51
2022-11-10T19:16:11.362Z,25.54
2022-11-10T19:18:40.614Z,25.52
2022-11-10T19:21:07.732Z,25.52
2022-11-10T19:23:34.206Z,25.55
2022-11-10T19:26:05.039Z,25.58
2022-11-10T19:28:31.523Z,25.64
2022-11-10T19:31:05.880Z,25.63
2022-11-10T19:33:33.093Z,25.66
2022-11-10T19:36:19.127Z,25.40
2022-11-10T19:38:45.681Z,24.96
2022-11-10T19:41:17.774Z,24.87
2022-11-10T19:43:47.428Z,24.86
2022-11-10T19:46:16.076Z,24.84
2022-11-10T19:48:43.260Z,24.89
2022-11-10T19:51:11.125Z,24.81
2022-11-10T19:53:37.589Z,24.76
2022-11-10T19:56:14.109Z,24.64
2022-11-10T19:58:40.718Z,24.70
2022-11-10T20:01:08.756Z,24.70
2022-11-10T20:03:35.366Z,24.73
2022-11-10T20:06:03.580Z,24.77
2022-11-10T20:08:30.260Z,24.74
2022-11-10T20:11:04.179Z,24.74
2022-11-10T20:13:30.496Z,24.74
2022-11-10T20:15:56.988Z,24.69
2022-11-10T20:18:23.470Z,24.68
2022-11-10T20:20:49.956Z,24.63
2022-11-10T20:23:16.758Z,24.65
2022-11-10T20:25:43.391Z,24.62
2022-11-10T20:28:09.977Z,24.62
2022-11-10T20:30:37.933Z,24.62
2022-11-10T20:33:04.993Z,24.54
2022-11-10T20:35:31.861Z,24.54
2022-11-10T20:37:58.332Z,24.52
2022-11-10T20:40:43.423Z,24.53
2022-11-10T20:43:11.694Z,24.54
2022-11-10T20:45:38.999Z,24.54
2022-11-10T20:48:05.454Z,24.59
2022-11-10T20:50:31.957Z,24.59
2022-11-10T20:52:58.618Z,24.54
2022-11-10T20:55:51.691Z,24.56
2022-11-10T20:58:11.856Z,24.53
2022-11-10T21:00:42.532Z,24.53
2022-11-10T21:03:09.048Z,24.52
2022-11-10T21:05:35.567Z,24.51
2022-11-10T21:08:02.073Z,24.51
2022-11-10T21:10:28.545Z,24.48
2022-11-10T21:12:55.079Z,24.60
2022-11-10T21:15:21.584Z,24.73
2022-11-10T21:17:48.092Z,24.73
2022-11-10T21:20:14.862Z,24.74
2022-11-10T21:22:41.327Z,24.73
2022-11-10T21:25:07.927Z,24.72
2022-11-10T21:27:34.449Z,24.73
2022-11-10T21:30:00.975Z,24.72
2022-11-10T21:32:27.528Z,24.70
2022-11-10T21:34:54.005Z,24.70
2022-11-10T21:37:20.501Z,24.69
2022-11-10T21:39:47.050Z,24.65
2022-11-10T21:42:15.766Z,24.63
2022-11-10T21:44:42.228Z,24.62
2022-11-10T21:47:09.785Z,24.60
2022-11-10T21:49:36.225Z,24.58
2022-11-10T21:52:02.749Z,24.52
2022-11-10T21:54:29.219Z,24.49
2022-11-10T21:56:55.712Z,24.42
2022-11-10T21:59:22.854Z,24.44
2022-11-10T22:01:49.426Z,24.42
2022-11-10T22:04:15.940Z,24.46
2022-11-10T22:07:01.101Z,24.45
2022-11-10T22:09:46.286Z,24.47
2022-11-10T22:12:31.519Z,24.47
2022-11-10T22:15:27.113Z,24.45
2022-11-10T22:18:11.824Z,24.46
2022-11-10T22:20:38.292Z,24.45
2022-11-10T22:23:04.784Z,24.37
2022-11-10T22:25:31.251Z,24.42
2022-11-10T22:27:57.718Z,24.39
2022-11-10T22:30:24.209Z,24.38
2022-11-10T22:32:50.682Z,24.37
2022-11-10T22:35:38.490Z,24.36
2022-11-10T22:38:05.549Z,24.35
2022-11-10T22:40:50.918Z,24.32
2022-11-10T22:43:36.173Z,24.29
2022-11-10T22:46:02.691Z,24.27
2022-11-10T22:48:32.820Z,24.20
2022-11-10T22:50:59.630Z,24.17
2022-11-10T22:53:26.462Z,24.15
2022-11-10T22:55:53.002Z,24.05
2022-11-10T22:58:19.507Z,23.87
2022-11-10T23:00:46.812Z,23.76
2022-11-10T23:03:14.088Z,23.74
2022-11-10T23:05:40.544Z,23.65
2022-11-10T23:08:07.306Z,23.65
2022-11-10T23:10:33.771Z,23.62
2022-11-10T23:13:00.310Z,23.57
2022-11-10T23:15:26.784Z,23.52
2022-11-10T23:17:54.303Z,23.52
2022-11-10T23:20:20.767Z,23.49
2022-11-10T23:22:47.228Z,23.50
2022-11-10T23:25:14.255Z,23.47
2022-11-10T23:27:40.723Z,23.45
2022-11-10T23:30:07.740Z,23.44
2022-11-10T23:32:34.207Z,23.42
2022-11-10T23:35:00.684Z,23.39
2022-11-10T23:37:27.190Z,23.36
2022-11-10T23:39:53.652Z,23.33
2022-11-10T23:42:21.479Z,23.31
2022-11-10T23:44:47.933Z,23.30
2022-11-10T23:47:14.399Z,23.27
2022-11-10T23:49:40.859Z,23.26
2022-11-10T23:52:07.338Z,23.23
2022-11-10T23:54:33.806Z,23.21
2022-11-10T23:57:00.301Z,23.18
2022-11-10T23:59:26.760Z,23.17
